New Castle, Delaware
Current Conditions -  °F | °C
As of 12:51 AM on Friday 31 Oct 2014 (Local Time) from KILG Reporting Station
Clear Clear  
Wind Chill: 41°   Ceiling: Unl
Heat Index: 41°   Visibility: 10mi
Dew Point: 38°   Wind: 3mph
Humidity: 89%   Direction: 350°N
Pressure: 30.04"   Gusts: NA
Location:  39.67°N, 75.57°W
Report Text: KILG 310451Z 35003KT 10SM CLR 05/03 A3004 RMK AO2 SLP173 T00500033 401560039
Loading
Personal Weather Stations






























Interactive Weather Map
Tropical Storm Tracking
New forecast layout! Learn more

10-Day Weather Forecast

Advertisements
Track Severe Weather on mobile